Time;durP1;ratioP1;P1;durP2;ratioP2;P2;SDS_P1;SDS_P2;PMS_P1;PMS_P2;Temp;Humidity;BMP_temperature;BMP_pressure;BME280_temperature;BME280_humidity;BME280_pressure;Samples;Min_cycle;Max_cycle;Signal;HPM_P1;HPM_P2
2023/08/16 00:01:33;;;;;;;19.80;10.10;;;;;;;19.00;72.35;99554.76;109148;1256;59991;-23
2023/08/16 00:04:00;;;;;;;18.00;10.80;;;;;;;18.81;73.39;99551.13;109096;1257;72602;-23
2023/08/16 00:06:28;;;;;;;15.00;7.00;;;;;;;18.64;74.26;99553.16;109126;1257;74332;-23
2023/08/16 00:08:58;;;;;;;15.90;9.50;;;;;;;19.07;74.12;99556.61;109106;1256;72649;-23
2023/08/16 00:11:27;;;;;;;12.90;7.70;;;;;;;19.63;72.12;99555.36;109079;1257;60076;-23
2023/08/16 00:13:55;;;;;;;20.40;9.80;;;;;;;19.71;70.99;99547.46;109092;1257;60177;-23
2023/08/16 00:16:23;;;;;;;20.60;11.00;;;;;;;19.56;71.61;99550.94;109080;1257;72595;-23
2023/08/16 00:18:50;;;;;;;15.00;8.70;;;;;;;19.35;71.49;99552.30;109132;1257;74361;-23
2023/08/16 00:21:18;;;;;;;16.00;9.40;;;;;;;19.13;71.00;99555.82;109132;1257;71498;-23
2023/08/16 00:23:46;;;;;;;20.90;10.60;;;;;;;18.86;71.99;99557.48;109096;1256;60074;-23
2023/08/16 00:26:13;;;;;;;19.60;10.80;;;;;;;18.59;72.83;99559.10;109075;1257;58816;-23
2023/08/16 00:28:42;;;;;;;17.50;9.80;;;;;;;18.38;73.60;99561.09;109274;1256;73784;-23
2023/08/16 00:31:09;;;;;;;15.20;8.10;;;;;;;18.27;74.86;99561.21;109051;1257;74301;-23
2023/08/16 00:33:37;;;;;;;13.10;8.10;;;;;;;18.77;74.26;99560.52;109071;1257;71431;-23
2023/08/16 00:36:06;;;;;;;15.80;8.90;;;;;;;19.32;72.76;99559.83;108987;1257;58859;-23
2023/08/16 00:38:34;;;;;;;14.10;8.50;;;;;;;19.41;71.31;99562.91;108957;1257;60023;-23
2023/08/16 00:41:02;;;;;;;18.00;8.90;;;;;;;19.24;70.44;99563.05;108950;1257;73863;-23
2023/08/16 00:43:29;;;;;;;15.40;9.00;;;;;;;18.97;71.00;99568.45;109062;1257;74870;-23
2023/08/16 00:45:57;;;;;;;14.10;8.50;;;;;;;18.72;72.55;99573.46;109038;1257;72646;-23
2023/08/16 00:48:25;;;;;;;20.30;9.30;;;;;;;18.52;72.81;99572.08;108919;1258;60186;-22
2023/08/16 00:50:52;;;;;;;14.80;9.50;;;;;;;18.37;73.04;99567.72;109069;1257;58793;-23
2023/08/16 00:53:20;;;;;;;19.50;9.10;;;;;;;18.22;73.43;99568.55;109003;1257;73909;-23
2023/08/16 00:55:47;;;;;;;11.00;5.90;;;;;;;18.09;74.44;99571.19;108978;1257;74362;-23
2023/08/16 00:58:15;;;;;;;9.50;4.70;;;;;;;18.54;75.24;99568.40;108982;1257;72668;-23
2023/08/16 01:00:43;;;;;;;9.60;4.80;;;;;;;19.09;74.07;99573.48;108971;1257;60061;-23
2023/08/16 01:03:11;;;;;;;10.60;6.30;;;;;;;19.14;74.08;99575.53;108997;1257;60054;-23
2023/08/16 01:05:39;;;;;;;11.90;6.20;;;;;;;18.99;73.20;99575.60;108971;1257;72467;-22
2023/08/16 01:08:06;;;;;;;15.90;7.30;;;;;;;18.79;73.59;99569.27;109003;1257;74310;-23
2023/08/16 01:11:11;;;;;;;14.00;9.20;;;;;;;18.55;74.94;99568.29;109049;1257;71381;-22
2023/08/16 01:14:25;;;;;;;12.50;8.60;;;;;;;18.24;76.15;99566.61;108876;1259;58966;-23
2023/08/16 01:16:55;;;;;;;10.80;5.90;;;;;;;18.11;76.27;99565.70;108917;1259;60056;-23
2023/08/16 01:19:29;;;;;;;9.00;6.10;;;;;;;18.70;75.50;99560.33;108782;1260;73869;-23
2023/08/16 01:22:21;;;;;;;13.50;7.70;;;;;;;19.08;73.37;99563.15;108807;1260;73230;-23
2023/08/16 01:25:11;;;;;;;12.10;7.40;;;;;;;18.98;73.45;99561.45;108878;1260;71450;-23
2023/08/16 01:27:42;;;;;;;9.70;6.50;;;;;;;18.67;74.94;99560.87;108813;1260;58870;-23
2023/08/16 01:30:13;;;;;;;9.40;6.20;;;;;;;18.40;76.14;99560.60;108808;1259;59068;-23
2023/08/16 01:32:43;;;;;;;9.80;6.40;;;;;;;18.17;77.04;99561.52;108790;1259;73882;-23
2023/08/16 01:35:12;;;;;;;8.40;5.30;;;;;;;18.03;77.22;99558.11;108930;1259;74306;-23
2023/08/16 01:37:44;;;;;;;8.40;5.30;;;;;;;18.45;77.25;99554.27;108887;1259;72627;-23
2023/08/16 01:40:15;;;;;;;12.30;6.30;;;;;;;18.94;75.71;99556.54;108879;1259;58886;-23
2023/08/16 01:42:47;;;;;;;8.50;5.90;;;;;;;18.99;75.07;99557.42;108926;1259;60489;-23
2023/08/16 01:45:18;;;;;;;15.10;6.90;;;;;;;18.84;74.97;99556.93;108886;1260;72378;-22
2023/08/16 01:47:51;;;;;;;12.50;6.40;;;;;;;18.63;75.52;99555.69;108883;1259;74318;-23
2023/08/16 01:50:21;;;;;;;7.00;5.30;;;;;;;18.44;76.01;99555.60;108907;1259;71032;-22
2023/08/16 01:52:52;;;;;;;9.60;6.10;;;;;;;18.25;76.13;99552.87;108977;1259;59660;-23
2023/08/16 01:55:22;;;;;;;10.40;4.50;;;;;;;18.11;76.14;99557.09;108867;1260;58849;-23
2023/08/16 01:57:53;;;;;;;9.20;4.60;;;;;;;18.57;75.31;99558.75;108950;1259;73852;-23
2023/08/16 02:00:23;;;;;;;8.60;4.80;;;;;;;19.06;73.85;99560.52;108847;1264;74592;-23
2023/08/16 02:02:52;;;;;;;8.90;5.00;;;;;;;19.12;73.91;99556.91;108784;1260;71900;-23
2023/08/16 02:05:22;;;;;;;6.60;5.50;;;;;;;18.96;73.82;99557.27;108957;1259;58866;-23
2023/08/16 02:07:53;;;;;;;9.30;5.90;;;;;;;18.69;74.37;99555.70;108958;1259;60430;-23
2023/08/16 02:10:24;;;;;;;11.70;6.00;;;;;;;18.39;75.09;99552.73;108955;1259;72533;-23
2023/08/16 02:20:39;;;;;;;9.70;4.90;;;;;;;17.45;77.33;99549.77;102622;1297;600338;-22
2023/08/16 02:23:08;;;;;;;8.90;5.30;;;;;;;17.95;76.86;99551.56;104897;1271;61190;-22
2023/08/16 02:25:35;;;;;;;9.50;5.20;;;;;;;18.39;74.82;99553.80;104874;1272;61071;-22
2023/08/16 02:28:03;;;;;;;8.20;5.30;;;;;;;18.39;74.28;99558.71;104723;1272;70985;-21
2023/08/16 02:30:31;;;;;;;9.10;5.20;;;;;;;18.25;74.77;99558.46;104730;1267;74317;-22
2023/08/16 02:33:00;;;;;;;10.70;5.90;;;;;;;18.05;75.06;99559.65;104786;1273;72738;-22
2023/08/16 02:43:07;;;;;;;10.10;4.40;;;;;;;17.32;76.91;99568.98;102627;1289;600096;-22
2023/08/16 02:45:35;;;;;;;6.50;4.40;;;;;;;17.85;77.62;99566.11;108701;1263;60129;-23
2023/08/16 02:48:03;;;;;;;11.00;5.60;;;;;;;18.25;75.00;99566.31;108627;1263;60028;-23
2023/08/16 02:50:30;;;;;;;8.90;5.60;;;;;;;18.18;75.43;99569.00;108632;1263;69846;-22
2023/08/16 02:52:58;;;;;;;10.50;5.80;;;;;;;17.99;76.14;99567.50;108737;1263;74722;-22
2023/08/16 02:55:25;;;;;;;10.40;6.30;;;;;;;17.79;76.90;99565.84;108637;1263;71447;-22
2023/08/16 02:57:53;;;;;;;11.80;6.90;;;;;;;17.56;76.38;99571.66;106814;1260;2653208;-23
2023/08/16 03:00:22;;;;;;;7.40;4.50;;;;;;;17.37;78.13;99575.69;108794;1260;61932;-23
2023/08/16 03:02:50;;;;;;;7.20;4.30;;;;;;;17.76;77.88;99572.98;108818;1260;72229;-23
2023/08/16 03:05:17;;;;;;;6.60;4.90;;;;;;;18.22;75.62;99577.38;108854;1260;74316;-23
2023/08/16 03:07:45;;;;;;;7.80;4.90;;;;;;;18.23;75.38;99574.58;108759;1260;71389;-23
2023/08/16 03:10:12;;;;;;;7.90;6.30;;;;;;;18.09;75.91;99572.38;108741;1260;60043;-23
2023/08/16 03:12:41;;;;;;;8.90;5.90;;;;;;;17.89;76.35;99572.71;108822;1263;58800;-23
2023/08/16 03:15:09;;;;;;;7.10;5.70;;;;;;;17.71;77.13;99574.89;108788;1262;71797;-23
2023/08/16 03:17:36;;;;;;;12.80;5.90;;;;;;;17.56;77.38;99576.91;108755;1263;74366;-23
2023/08/16 03:20:07;;;;;;;6.90;4.60;;;;;;;17.47;77.76;99576.84;108729;1262;71086;-22
2023/08/16 03:22:35;;;;;;;7.00;4.10;;;;;;;18.00;77.63;99575.82;108603;1263;58844;-22
2023/08/16 03:25:03;;;;;;;6.20;4.30;;;;;;;18.66;75.60;99576.06;108805;1262;60025;-23
2023/08/16 03:27:31;;;;;;;6.10;4.00;;;;;;;18.96;73.76;99578.38;108657;1268;72154;-23
2023/08/16 03:29:59;;;;;;;4.60;3.90;;;;;;;19.05;73.01;99583.02;108802;1263;73081;-23
2023/08/16 03:32:27;;;;;;;8.90;3.70;;;;;;;19.09;72.55;99583.28;108734;1262;72718;-23
2023/08/16 03:34:54;;;;;;;5.30;3.70;;;;;;;19.10;72.19;99589.48;108746;1261;60043;-23
2023/08/16 03:37:23;;;;;;;5.60;4.00;;;;;;;19.09;71.80;99588.05;108768;1261;58713;-22
2023/08/16 03:39:52;;;;;;;6.60;4.70;;;;;;;19.07;71.53;99590.17;108824;1262;71984;-23
2023/08/16 03:42:19;;;;;;;10.20;5.80;;;;;;;19.12;72.02;99591.95;108762;1262;74315;-23
2023/08/16 03:44:47;;;;;;;4.50;3.50;;;;;;;19.76;71.84;99587.91;108799;1261;71381;-23
2023/08/16 03:47:14;;;;;;;9.00;3.60;;;;;;;20.50;69.92;99587.60;108734;1265;59291;-23
2023/08/16 03:49:44;;;;;;;7.40;3.80;;;;;;;20.78;68.35;99583.40;108800;1262;60015;-23
2023/08/16 03:52:11;;;;;;;20.90;10.60;;;;;;;20.86;67.31;99586.35;108779;1263;71744;-23
2023/08/16 03:54:39;;;;;;;47.40;20.00;;;;;;;20.91;67.08;99586.10;108750;1262;74354;-23
2023/08/16 03:57:07;;;;;;;29.50;16.60;;;;;;;20.98;66.68;99582.83;108811;1262;72651;-23
2023/08/16 03:59:34;;;;;;;33.20;19.10;;;;;;;20.99;66.61;99580.44;108708;1264;58896;-23
2023/08/16 04:02:03;;;;;;;44.30;20.70;;;;;;;20.93;66.57;99580.04;108816;1263;59233;-23
2023/08/16 04:04:31;;;;;;;43.50;20.70;;;;;;;21.01;66.49;99582.64;108780;1263;73046;-23
2023/08/16 04:06:59;;;;;;;37.80;20.10;;;;;;;21.04;66.58;99581.65;108832;1263;73058;-23
2023/08/16 04:09:27;;;;;;;35.20;18.50;;;;;;;21.12;66.79;99584.92;108723;1263;72720;-23
2023/08/16 04:11:54;;;;;;;37.90;19.50;;;;;;;21.28;66.32;99587.42;108691;1263;58867;-23
2023/08/16 04:14:22;;;;;;;42.60;19.40;;;;;;;21.43;66.02;99590.80;108734;1263;60013;-23
2023/08/16 04:16:49;;;;;;;11.40;5.80;;;;;;;21.62;66.42;99592.85;108725;1263;73085;-23
2023/08/16 04:19:17;;;;;;;7.80;5.10;;;;;;;22.32;64.21;99586.12;108724;1263;73087;-23
2023/08/16 04:21:44;;;;;;;7.50;5.10;;;;;;;23.21;61.84;99590.97;109039;1256;71347;-23
2023/08/16 04:24:12;;;;;;;10.80;5.40;;;;;;;23.58;59.97;99588.84;109002;1260;60074;-23
2023/08/16 04:26:40;;;;;;;10.50;6.00;;;;;;;23.71;59.96;99586.08;109094;1256;58755;-23
2023/08/16 04:29:08;;;;;;;7.90;5.30;;;;;;;23.80;59.87;99584.70;109126;1256;71763;-23
2023/08/16 04:31:36;;;;;;;11.10;5.40;;;;;;;23.85;58.66;99584.26;109041;1256;73711;-23
2023/08/16 04:34:03;;;;;;;7.90;5.50;;;;;;;23.92;59.47;99586.04;109106;1256;72661;-23
2023/08/16 04:36:31;;;;;;;12.40;6.30;;;;;;;24.07;59.50;99588.48;109013;1259;59353;-23
2023/08/16 04:38:59;;;;;;;13.70;7.30;;;;;;;24.19;59.31;99591.09;109116;1256;60074;-23
2023/08/16 04:41:26;;;;;;;11.00;7.70;;;;;;;24.30;58.82;99592.30;109127;1256;73067;-23
2023/08/16 04:43:54;;;;;;;9.30;7.40;;;;;;;24.39;58.49;99594.19;109030;1257;73019;-23
2023/08/16 04:46:22;;;;;;;8.20;6.40;;;;;;;24.48;58.36;99601.46;109010;1256;72370;-23
2023/08/16 04:48:49;;;;;;;10.50;5.90;;;;;;;24.62;57.91;99600.98;109133;1256;58837;-23
2023/08/16 04:51:17;;;;;;;7.30;5.80;;;;;;;24.70;57.48;99604.84;109057;1256;60028;-23
2023/08/16 04:53:46;;;;;;;8.10;5.50;;;;;;;24.78;57.20;99606.16;109053;1256;73012;-23
2023/08/16 04:56:15;;;;;;;9.20;5.50;;;;;;;24.77;57.41;99607.72;109038;1256;74323;-23
2023/08/16 04:58:42;;;;;;;7.90;5.40;;;;;;;24.88;57.35;99610.30;109021;1256;73733;-23
2023/08/16 05:01:10;;;;;;;9.00;5.40;;;;;;;24.98;56.62;99611.27;109071;1256;58805;-23
2023/08/16 05:03:39;;;;;;;8.30;5.40;;;;;;;24.94;57.08;99611.98;109081;1256;60092;-23
2023/08/16 05:06:06;;;;;;;5.70;4.90;;;;;;;24.96;56.86;99613.91;109132;1259;73087;-23
2023/08/16 05:08:34;;;;;;;8.50;5.90;;;;;;;24.97;57.16;99614.84;109030;1256;74768;-23
2023/08/16 05:11:03;;;;;;;9.60;5.00;;;;;;;25.07;56.46;99617.95;109045;1256;72901;-23
2023/08/16 05:13:30;;;;;;;9.50;5.20;;;;;;;25.24;56.12;99619.00;108999;1256;58868;-23
2023/08/16 05:15:58;;;;;;;8.60;6.10;;;;;;;25.46;55.12;99619.64;109031;1256;60497;-23
2023/08/16 05:18:25;;;;;;;12.10;6.80;;;;;;;25.62;54.91;99619.61;108997;1256;70853;-23
2023/08/16 05:20:58;;;;;;;12.10;5.80;;;;;;;25.86;54.41;99621.84;108986;1257;74361;-23
2023/08/16 05:23:26;;;;;;;8.50;5.80;;;;;;;26.11;53.42;99616.35;108982;1256;72633;-23
2023/08/16 05:25:53;;;;;;;9.00;5.30;;;;;;;26.27;53.27;99613.86;109091;1258;58799;-23
2023/08/16 05:28:21;;;;;;;7.50;5.80;;;;;;;26.36;52.49;99617.02;109056;1256;59156;-23
2023/08/16 05:30:49;;;;;;;7.10;5.90;;;;;;;26.40;52.78;99618.96;109098;1256;71790;-23
2023/08/16 05:33:17;;;;;;;11.10;6.60;;;;;;;26.45;51.75;99620.20;109075;1256;74301;-23
2023/08/16 05:35:44;;;;;;;11.90;5.80;;;;;;;26.47;51.44;99620.51;109012;1256;72632;-23
2023/08/16 05:38:12;;;;;;;13.10;5.40;;;;;;;26.65;51.58;99614.34;109017;1256;58867;-23
2023/08/16 05:40:39;;;;;;;8.60;5.70;;;;;;;26.86;51.39;99612.72;108989;1256;58848;-23
2023/08/16 05:43:07;;;;;;;7.30;4.80;;;;;;;27.07;51.17;99615.28;109054;1256;73053;-23
2023/08/16 05:45:34;;;;;;;7.40;5.00;;;;;;;27.22;50.43;99611.08;109070;1256;74319;-23
2023/08/16 05:48:02;;;;;;;5.90;5.40;;;;;;;27.19;50.54;99610.90;109026;1256;71464;-23
2023/08/16 05:50:30;;;;;;;7.60;4.90;;;;;;;27.29;50.54;99609.36;109031;1259;60076;-23
2023/08/16 05:52:57;;;;;;;8.00;4.70;;;;;;;27.45;50.11;99610.21;109082;1256;60091;-23
2023/08/16 05:55:25;;;;;;;8.30;4.90;;;;;;;27.58;50.15;99607.95;109096;1256;73086;-23
2023/08/16 05:57:53;;;;;;;7.70;4.70;;;;;;;27.69;49.62;99610.70;109063;1256;74413;-23
2023/08/16 06:00:21;;;;;;;10.30;5.10;;;;;;;27.82;49.34;99612.23;109089;1256;72715;-23
2023/08/16 06:02:48;;;;;;;8.70;4.60;;;;;;;27.89;49.41;99607.61;109041;1259;60042;-23
2023/08/16 06:05:16;;;;;;;6.50;4.70;;;;;;;27.90;49.27;99607.48;109041;1256;60024;-23
2023/08/16 06:07:44;;;;;;;9.30;4.90;;;;;;;27.77;48.95;99608.30;109057;1256;73007;-23
2023/08/16 06:10:11;;;;;;;9.40;5.80;;;;;;;27.76;49.31;99612.55;109032;1256;74534;-23
2023/08/16 06:12:39;;;;;;;6.90;5.00;;;;;;;27.76;49.53;99611.98;109055;1257;72655;-23
2023/08/16 06:15:11;;;;;;;11.20;4.80;;;;;;;27.74;49.31;99610.67;109015;1257;58787;-23
2023/08/16 06:17:38;;;;;;;10.00;3.80;;;;;;;27.65;49.13;99609.35;109022;1257;58764;-23
2023/08/16 06:20:07;;;;;;;11.10;4.40;;;;;;;27.65;49.76;99608.02;109039;1257;73092;-23
2023/08/16 06:22:37;;;;;;;9.70;4.10;;;;;;;27.75;49.75;99608.00;108945;1257;74314;-23
2023/08/16 06:25:05;;;;;;;7.50;3.90;;;;;;;27.86;49.06;99606.95;108988;1257;72723;-23
2023/08/16 06:27:33;;;;;;;11.40;4.00;;;;;;;27.92;48.93;99607.21;108979;1257;58772;-23
2023/08/16 06:30:01;;;;;;;9.80;3.50;;;;;;;28.00;48.92;99607.48;109034;1263;58779;-23
2023/08/16 06:32:28;;;;;;;11.50;4.10;;;;;;;28.15;48.58;99606.46;108996;1258;71845;-23
2023/08/16 06:34:56;;;;;;;6.80;3.60;;;;;;;28.29;48.09;99606.48;109000;1257;73204;-24
2023/08/16 06:37:24;;;;;;;8.90;3.80;;;;;;;28.23;48.34;99607.48;108982;1257;71810;-23
2023/08/16 06:39:52;;;;;;;9.20;3.50;;;;;;;28.38;48.34;99609.89;109000;1257;58836;-23
2023/08/16 06:42:19;;;;;;;6.80;3.40;;;;;;;28.51;47.99;99607.46;109002;1257;58896;-23
2023/08/16 06:44:47;;;;;;;6.40;3.30;;;;;;;28.56;47.78;99609.98;109026;1257;73133;-23
2023/08/16 06:47:15;;;;;;;9.20;3.50;;;;;;;28.71;47.96;99605.16;109032;1257;74343;-23
2023/08/16 06:49:42;;;;;;;7.30;3.40;;;;;;;28.81;46.96;99607.02;109001;1257;72605;-23
2023/08/16 06:52:10;;;;;;;14.90;3.90;;;;;;;28.76;47.21;99606.42;109020;1257;60146;-23
2023/08/16 06:54:37;;;;;;;8.80;3.60;;;;;;;28.82;45.91;99605.23;109013;1257;59997;-23
2023/08/16 06:57:05;;;;;;;12.70;3.60;;;;;;;28.69;46.52;99606.40;109046;1257;73926;-23
2023/08/16 06:59:32;;;;;;;10.10;3.20;;;;;;;28.79;46.82;99608.36;109058;1257;74321;-23
2023/08/16 07:02:00;;;;;;;13.90;4.60;;;;;;;28.89;45.94;99607.22;109012;1257;72630;-24
2023/08/16 07:04:27;;;;;;;9.10;3.60;;;;;;;28.93;45.76;99611.42;108980;1259;60521;-23
2023/08/16 07:06:55;;;;;;;8.50;3.20;;;;;;;29.06;45.73;99610.50;109070;1257;58736;-23
2023/08/16 07:09:22;;;;;;;11.00;3.70;;;;;;;29.03;46.17;99613.86;109008;1259;73810;-23
2023/08/16 07:11:50;;;;;;;16.00;4.10;;;;;;;29.22;45.94;99610.99;109003;1260;74871;-23
2023/08/16 07:14:18;;;;;;;13.60;3.80;;;;;;;29.20;45.42;99610.95;109000;1258;72861;-23
2023/08/16 07:16:45;;;;;;;9.30;3.40;;;;;;;29.42;45.33;99609.08;108939;1259;59203;-23
2023/08/16 07:19:13;;;;;;;9.50;3.20;;;;;;;29.67;45.08;99608.95;109020;1258;60032;-23
2023/08/16 07:21:41;;;;;;;7.00;2.60;;;;;;;29.82;44.25;99608.27;108997;1258;72055;-22
2023/08/16 07:24:08;;;;;;;6.80;2.90;;;;;;;29.97;44.27;99602.95;109018;1259;72573;-23
2023/08/16 07:26:37;;;;;;;10.40;3.20;;;;;;;30.09;43.24;99600.53;108935;1258;63725;-22
2023/08/16 07:29:05;;;;;;;13.80;3.30;;;;;;;30.24;42.76;99598.54;108978;1259;58893;-24
2023/08/16 07:31:32;;;;;;;8.50;2.90;;;;;;;30.36;43.08;99600.25;108943;1258;60006;-22
2023/08/16 07:34:00;;;;;;;6.90;3.30;;;;;;;30.47;42.48;99600.90;109024;1258;64986;-23
2023/08/16 07:36:28;;;;;;;13.80;3.10;;;;;;;30.43;42.43;99600.30;109007;1260;65420;-23
2023/08/16 07:38:57;;;;;;;9.30;2.80;;;;;;;30.59;41.53;99601.17;108995;1259;63742;-23
2023/08/16 07:41:25;;;;;;;11.60;2.80;;;;;;;30.86;40.78;99599.48;109021;1258;58879;-23
2023/08/16 07:43:53;;;;;;;11.20;2.80;;;;;;;31.16;40.67;99602.94;109047;1258;58769;-22
2023/08/16 07:46:20;;;;;;;6.20;2.60;;;;;;;31.36;39.82;99605.58;108974;1260;63660;-23
2023/08/16 07:48:48;;;;;;;9.80;2.40;;;;;;;31.59;39.36;99602.73;109008;1258;65419;-23
2023/08/16 07:51:15;;;;;;;6.20;2.70;;;;;;;31.84;39.00;99599.70;108978;1260;62447;-23
2023/08/16 07:53:43;;;;;;;5.20;2.30;;;;;;;31.81;38.35;99598.43;109006;1258;58785;-22
2023/08/16 07:56:11;;;;;;;9.00;2.60;;;;;;;31.90;38.96;99598.14;108906;1258;58855;-23
2023/08/16 07:58:39;;;;;;;5.50;2.30;;;;;;;32.21;37.97;99601.04;108981;1260;63690;-23
2023/08/16 08:01:06;;;;;;;12.20;2.40;;;;;;;32.50;37.32;99598.92;109000;1260;64274;-23
2023/08/16 08:03:34;;;;;;;8.90;2.80;;;;;;;32.45;36.90;99598.93;108945;1258;62489;-23
2023/08/16 08:06:02;;;;;;;9.70;2.80;;;;;;;32.43;36.65;99598.44;108991;1261;58774;-23
2023/08/16 08:08:31;;;;;;;9.90;2.40;;;;;;;32.46;36.19;99599.23;109002;1259;58721;-23
2023/08/16 08:10:58;;;;;;;8.10;2.10;;;;;;;32.75;35.45;99598.57;109017;1258;64936;-23
2023/08/16 08:13:26;;;;;;;7.20;2.30;;;;;;;33.05;35.04;99597.86;108893;1258;65440;-23
2023/08/16 08:15:54;;;;;;;3.90;2.10;;;;;;;33.23;33.69;99595.69;108886;1259;63783;-23
2023/08/16 08:18:21;;;;;;;3.50;2.00;;;;;;;32.94;33.67;99596.08;108919;1258;58842;-23
2023/08/16 08:20:49;;;;;;;6.20;2.20;;;;;;;33.06;34.42;99597.27;108985;1258;58816;-23
2023/08/16 08:23:17;;;;;;;4.10;1.80;;;;;;;33.28;34.02;99597.81;108910;1259;64947;-23
2023/08/16 08:25:44;;;;;;;3.00;2.00;;;;;;;33.51;33.44;99598.90;108880;1259;64223;-23
2023/08/16 08:28:13;;;;;;;3.70;1.80;;;;;;;33.74;32.66;99600.48;108954;1259;63951;-23
2023/08/16 08:30:41;;;;;;;3.30;1.90;;;;;;;33.93;32.36;99597.85;108963;1260;58831;-23
2023/08/16 08:33:09;;;;;;;6.40;1.90;;;;;;;33.56;32.30;99594.27;108870;1259;58691;-23
2023/08/16 08:35:38;;;;;;;4.30;2.00;;;;;;;33.49;33.01;99594.05;108952;1258;65075;-22
2023/08/16 08:38:06;;;;;;;12.00;2.50;;;;;;;33.66;33.21;99591.13;108980;1260;64118;-23
2023/08/16 08:40:34;;;;;;;4.20;2.20;;;;;;;33.88;32.92;99589.36;108905;1258;63843;-23
2023/08/16 08:43:03;;;;;;;3.80;1.90;;;;;;;34.09;32.87;99585.83;108868;1259;58850;-23
2023/08/16 08:45:31;;;;;;;2.90;2.00;;;;;;;34.26;32.35;99584.16;108939;1260;58781;-23
2023/08/16 08:47:58;;;;;;;5.90;2.30;;;;;;;34.48;32.12;99578.83;108966;1258;72073;-23
2023/08/16 08:50:29;;;;;;;7.00;2.40;;;;;;;34.62;32.04;99583.52;108902;1258;64264;-23
2023/08/16 08:52:57;;;;;;;3.40;2.10;;;;;;;34.52;32.15;99582.17;108758;1259;63857;-23
2023/08/16 08:55:27;;;;;;;9.50;2.60;;;;;;;34.65;31.75;99581.62;108957;1260;58836;-23
2023/08/16 08:57:56;;;;;;;6.60;2.50;;;;;;;34.83;31.46;99578.08;108950;1259;58716;-23
2023/08/16 09:00:24;;;;;;;3.60;2.40;;;;;;;34.95;31.11;99578.80;108926;1260;65036;-23
2023/08/16 09:02:51;;;;;;;5.40;2.50;;;;;;;35.05;31.55;99577.07;108920;1258;65384;-24
2023/08/16 09:05:22;;;;;;;3.60;2.30;;;;;;;35.32;32.11;99580.65;108806;1258;62528;-23
2023/08/16 09:07:51;;;;;;;5.50;2.20;;;;;;;35.64;31.45;99577.27;108854;1263;58840;-23
2023/08/16 09:10:19;;;;;;;4.80;2.50;;;;;;;35.95;30.77;99575.30;108778;1260;58699;-23
2023/08/16 09:12:48;;;;;;;6.10;2.50;;;;;;;36.01;29.30;99575.48;108876;1259;64947;-24
2023/08/16 09:15:18;;;;;;;5.50;2.50;;;;;;;35.91;29.61;99571.02;108812;1259;66885;-24
2023/08/16 09:17:50;;;;;;;5.10;2.50;;;;;;;35.87;29.65;99570.02;108729;1259;63819;-23
2023/08/16 09:20:21;;;;;;;5.10;2.10;;;;;;;35.83;29.52;99569.08;108766;1262;58834;-23
2023/08/16 09:22:51;;;;;;;5.20;2.50;;;;;;;35.89;29.83;99567.20;108794;1259;58735;-23
2023/08/16 09:25:23;;;;;;;3.40;2.40;;;;;;;36.10;29.86;99568.31;108758;1259;63641;-23
2023/08/16 09:27:54;;;;;;;4.90;2.30;;;;;;;35.92;30.05;99566.27;108801;1259;65559;-23
2023/08/16 09:30:27;;;;;;;4.90;2.60;;;;;;;36.13;30.05;99564.28;108786;1259;63769;-23
2023/08/16 09:32:57;;;;;;;5.10;2.50;;;;;;;36.38;29.56;99563.52;108771;1259;58810;-23
2023/08/16 09:35:30;;;;;;;5.40;2.60;;;;;;;36.46;29.63;99567.20;108795;1259;58778;-23
2023/08/16 09:38:00;;;;;;;10.60;2.30;;;;;;;36.74;29.44;99561.14;108893;1259;65108;-23
2023/08/16 09:40:50;;;;;;;2.60;2.40;;;;;;;37.01;28.85;99561.63;108891;1259;65400;-24
2023/08/16 09:43:19;;;;;;;5.20;2.30;;;;;;;37.15;28.12;99558.86;108808;1259;62543;-23
2023/08/16 09:45:52;;;;;;;7.40;2.50;;;;;;;37.27;28.06;99556.81;108654;1259;58746;-23
2023/08/16 09:48:26;;;;;;;5.70;2.30;;;;;;;37.39;28.01;99554.59;108796;1259;58797;-23
2023/08/16 09:51:07;;;;;;;9.00;2.60;;;;;;;37.35;28.05;99555.16;108779;1259;63649;-23
2023/08/16 09:53:49;;;;;;;7.20;2.40;;;;;;;37.41;28.26;99556.36;108784;1259;65436;-23
2023/08/16 09:56:20;;;;;;;3.40;2.70;;;;;;;37.06;28.39;99553.11;108723;1259;62652;-23
2023/08/16 09:59:09;;;;;;;6.50;2.70;;;;;;;37.16;28.79;99557.32;108817;1259;58711;-23
2023/08/16 10:01:42;;;;;;;5.60;2.40;;;;;;;37.51;28.44;99550.16;108740;1259;58805;-23
2023/08/16 10:04:15;;;;;;;4.80;2.60;;;;;;;37.41;28.29;99548.54;108822;1259;64215;-23
2023/08/16 10:06:48;;;;;;;6.20;3.00;;;;;;;37.54;28.07;99551.90;108775;1259;65450;-23
2023/08/16 10:09:21;;;;;;;7.80;2.60;;;;;;;37.85;27.12;99550.59;108860;1265;62465;-23
2023/08/16 10:19:24;;;;;;;3.90;2.40;;;;;;;37.83;26.76;99555.13;103271;1286;600297;-22
2023/08/16 10:29:38;;;;;;;4.80;2.40;;;;;;;38.42;25.43;99546.64;102606;1295;599837;-22
2023/08/16 10:32:07;;;;;;;4.30;2.60;;;;;;;38.20;25.74;99544.95;104878;1266;61171;-22
2023/08/16 10:42:18;;;;;;;8.80;2.70;;;;;;;38.42;26.36;99543.80;102625;1292;600189;-22
2023/08/16 10:44:50;;;;;;;7.50;2.50;;;;;;;37.66;26.83;99545.95;105536;1257;61203;-22
2023/08/16 10:47:30;;;;;;;;;;;;;;;36.60;27.90;99546.77;105325;1263;61184;-22
2023/08/16 10:57:59;;;;;;;4.80;2.70;;;;;;;37.50;27.94;99552.19;102405;1291;606688;-22
2023/08/16 11:00:32;;;;;;;5.70;2.80;;;;;;;37.83;27.54;99554.52;104882;1271;61094;-22
2023/08/16 11:03:04;;;;;;;5.50;3.40;;;;;;;37.89;27.12;99552.48;104822;1271;61212;-23
2023/08/16 11:05:31;;;;;;;3.60;3.00;;;;;;;37.37;27.60;99549.63;104760;1275;62351;-23
2023/08/16 11:08:01;;;;;;;9.10;3.20;;;;;;;37.00;27.93;99545.62;104789;1266;65721;-23
2023/08/16 11:10:36;;;;;;;5.50;3.40;;;;;;;37.11;27.97;99544.57;102525;1271;3044884;-23
2023/08/16 11:13:07;;;;;;;7.00;3.00;;;;;;;37.35;27.54;99542.91;104825;1266;61024;-23
2023/08/16 11:15:35;;;;;;;4.30;3.00;;;;;;;37.16;27.63;99547.61;105482;1259;61068;-23
2023/08/16 11:18:02;;;;;;;4.30;2.80;;;;;;;37.05;26.94;99546.59;105312;1260;63580;-23
2023/08/16 11:20:37;;;;;;;6.90;3.30;;;;;;;36.55;28.31;99543.39;105583;1253;65833;-23
2023/08/16 11:23:04;;;;;;;4.60;2.50;;;;;;;36.95;28.11;99536.22;105438;1253;63968;-23
2023/08/16 11:25:33;;;;;;;5.80;3.20;;;;;;;37.25;28.04;99534.73;105772;1253;61057;-23
2023/08/16 11:28:03;;;;;;;7.70;2.90;;;;;;;37.17;27.65;99533.32;105695;1259;61146;-23
2023/08/16 11:30:31;;;;;;;2.60;2.40;;;;;;;37.08;28.05;99530.94;105676;1260;64368;-23
2023/08/16 11:32:59;;;;;;;7.40;3.10;;;;;;;37.02;27.90;99535.07;105712;1253;65727;-23
2023/08/16 11:35:26;;;;;;;5.50;2.40;;;;;;;37.08;27.73;99526.54;105670;1257;63861;-23
2023/08/16 11:37:53;;;;;;;4.20;2.80;;;;;;;36.83;28.36;99528.44;105681;1253;60992;-23
2023/08/16 11:40:22;;;;;;;4.40;2.80;;;;;;;36.47;28.77;99524.73;105749;1253;61593;-23
2023/08/16 11:42:52;;;;;;;5.20;3.10;;;;;;;35.95;28.90;99521.36;105595;1257;64295;-23
2023/08/16 11:45:24;;;;;;;3.50;3.00;;;;;;;35.66;29.21;99520.45;105779;1253;65560;-24
2023/08/16 11:47:51;;;;;;;7.70;2.70;;;;;;;35.22;29.06;99513.90;105702;1253;63998;-23
2023/08/16 11:50:19;;;;;;;3.40;2.20;;;;;;;34.95;29.90;99516.71;105623;1253;61157;-23
2023/08/16 11:52:57;;;;;;;4.00;2.70;;;;;;;35.34;30.16;99510.00;105473;1260;61205;-23
2023/08/16 11:55:25;;;;;;;4.20;2.60;;;;;;;35.75;30.12;99509.33;105356;1258;64279;-23
2023/08/16 11:57:53;;;;;;;3.10;2.60;;;;;;;36.01;29.10;99505.84;105616;1253;64305;-23
2023/08/16 12:00:27;;;;;;;2.60;2.30;;;;;;;36.28;29.48;99505.19;105605;1253;63847;-23
2023/08/16 12:03:01;;;;;;;5.00;2.70;;;;;;;36.62;28.74;99501.83;105406;1259;61093;-23
2023/08/16 12:05:34;;;;;;;4.60;2.70;;;;;;;36.63;29.04;99505.34;105662;1262;61155;-23
2023/08/16 12:08:03;;;;;;;7.70;2.70;;;;;;;36.79;28.66;99506.56;105691;1258;64258;-23
2023/08/16 12:10:33;;;;;;;4.90;2.70;;;;;;;36.88;28.26;99498.77;105723;1253;65685;-23
2023/08/16 12:13:14;;;;;;;5.40;2.70;;;;;;;36.94;28.63;99498.09;105710;1258;64093;-23
2023/08/16 12:15:41;;;;;;;4.30;3.00;;;;;;;36.92;28.39;99497.13;105665;1253;60996;-23
2023/08/16 12:18:08;;;;;;;3.70;2.70;;;;;;;37.07;27.69;99492.79;105769;1259;61113;-24